createdAt,value
2019-04-29T00:01:15.475Z,99972.53
2019-04-29T00:07:20.153Z,99967.66
2019-04-29T00:13:25.736Z,99968.12
2019-04-29T00:19:30.287Z,99981.43
2019-04-29T00:25:35.119Z,99979.36
2019-04-29T00:31:39.690Z,99972.34
2019-04-29T00:38:02.142Z,99967.00
2019-04-29T00:44:08.695Z,99976.73
2019-04-29T00:50:13.384Z,99979.38
2019-04-29T00:56:17.939Z,99971.41
2019-04-29T01:02:22.556Z,99972.91
2019-04-29T01:08:27.538Z,99978.14
2019-04-29T01:14:32.086Z,99980.21
2019-04-29T01:20:36.631Z,99984.86
2019-04-29T01:26:56.230Z,99979.42
2019-04-29T01:33:00.898Z,99979.92
2019-04-29T01:39:09.311Z,99978.73
2019-04-29T01:45:14.077Z,99983.73
2019-04-29T01:51:18.646Z,99975.09
2019-04-29T01:57:23.198Z,99984.72
2019-04-29T02:03:27.794Z,99992.20
2019-04-29T02:09:36.394Z,99988.80
2019-04-29T02:15:40.940Z,99982.16
2019-04-29T02:21:47.118Z,99984.92
2019-04-29T02:27:51.667Z,99976.25
2019-04-29T02:33:56.211Z,99972.70
2019-04-29T02:40:02.398Z,99972.97
2019-04-29T02:46:07.066Z,99968.66
2019-04-29T02:52:11.807Z,99959.91
2019-04-29T02:58:20.747Z,99958.85
2019-04-29T03:04:29.901Z,99955.26
2019-04-29T03:10:34.443Z,99946.28
2019-04-29T03:16:39.812Z,99950.45
2019-04-29T03:22:46.369Z,99948.17
2019-04-29T03:28:50.910Z,99950.72
2019-04-29T03:34:55.465Z,99945.72
2019-04-29T03:40:59.999Z,99954.05
2019-04-29T03:47:04.793Z,99947.51
2019-04-29T03:53:09.398Z,99946.45
2019-04-29T03:59:13.948Z,99952.20
2019-04-29T04:05:20.701Z,99954.73
2019-04-29T04:11:25.241Z,99965.90
2019-04-29T04:17:31.449Z,99954.42
2019-04-29T04:23:36.023Z,99959.55
2019-04-29T04:29:40.554Z,99962.91
2019-04-29T04:35:45.105Z,99967.20
2019-04-29T04:41:49.665Z,99968.44
2019-04-29T04:47:54.373Z,99970.37
2019-04-29T04:53:58.910Z,99975.55
2019-04-29T05:00:06.537Z,99982.77
2019-04-29T05:06:11.176Z,99979.45
2019-04-29T05:12:15.715Z,99976.48
2019-04-29T05:18:20.334Z,99980.89
2019-04-29T05:24:24.953Z,99988.18
2019-04-29T05:30:29.893Z,99999.66
2019-04-29T05:36:38.178Z,99998.90
2019-04-29T05:42:43.471Z,99994.64
2019-04-29T05:48:48.192Z,99997.69
2019-04-29T05:54:52.848Z,100004.09
2019-04-29T06:01:04.765Z,100010.53
2019-04-29T06:07:09.309Z,100010.93
2019-04-29T06:13:13.866Z,100005.09
2019-04-29T06:19:18.425Z,100007.16
2019-04-29T06:25:22.959Z,100011.22
2019-04-29T06:31:27.501Z,100004.21
2019-04-29T06:37:32.057Z,100002.88
2019-04-29T06:43:36.594Z,100004.31
2019-04-29T06:49:41.218Z,100002.44
2019-04-29T06:55:45.772Z,99999.41
2019-04-29T07:01:50.323Z,100004.64
2019-04-29T07:07:54.911Z,100003.86
2019-04-29T07:13:59.487Z,99996.00
2019-04-29T07:20:05.386Z,100000.73
2019-04-29T07:26:09.951Z,99995.04
2019-04-29T07:32:14.509Z,99990.30
2019-04-29T07:38:19.117Z,99992.57
2019-04-29T07:44:27.443Z,99982.19
2019-04-29T07:50:31.857Z,99986.31
2019-04-29T07:56:37.811Z,99975.39
2019-04-29T08:02:42.765Z,99971.05
2019-04-29T08:08:54.671Z,99974.46
2019-04-29T08:14:58.626Z,99975.48
2019-04-29T08:21:01.404Z,99979.16
2019-04-29T08:27:06.095Z,99983.06
2019-04-29T08:33:12.089Z,99979.88
2019-04-29T08:39:16.957Z,99975.39
2019-04-29T08:45:22.226Z,99966.31
2019-04-29T08:51:26.863Z,99966.94
2019-04-29T08:57:31.798Z,99968.92
2019-04-29T09:03:40.350Z,99970.29
2019-04-29T09:09:43.986Z,99967.39
2019-04-29T09:15:48.546Z,99965.95
2019-04-29T09:21:57.374Z,99968.66
2019-04-29T09:28:03.657Z,99970.87
2019-04-29T09:34:08.233Z,99963.46
2019-04-29T09:40:26.769Z,99962.99
2019-04-29T09:46:34.591Z,99971.90
2019-04-29T09:52:39.320Z,99965.78
2019-04-29T09:58:43.963Z,99953.53
2019-04-29T10:05:08.664Z,99945.30
2019-04-29T10:11:13.795Z,99946.55
2019-04-29T10:17:18.149Z,99945.52
2019-04-29T10:23:22.941Z,99950.41
2019-04-29T10:29:29.147Z,99940.22
2019-04-29T10:35:33.868Z,99927.34
2019-04-29T10:41:41.609Z,99923.28
2019-04-29T10:47:54.211Z,99914.80
2019-04-29T10:53:58.897Z,99902.09
2019-04-29T11:00:23.483Z,99907.52
2019-04-29T11:06:31.439Z,99895.63
2019-04-29T11:12:34.926Z,99891.56
2019-04-29T11:18:39.966Z,99893.78
2019-04-29T11:24:50.517Z,99887.75
2019-04-29T11:30:55.411Z,99879.09
2019-04-29T11:37:00.531Z,99872.36
2019-04-29T11:43:10.808Z,99855.66
2019-04-29T11:49:15.582Z,99847.44
2019-04-29T11:55:20.298Z,99841.20
2019-04-29T12:01:37.979Z,99845.72
2019-04-29T12:07:34.081Z,99847.41
2019-04-29T12:13:40.474Z,99834.32
2019-04-29T12:19:49.445Z,99831.45
2019-04-29T12:25:54.013Z,99829.28
2019-04-29T12:32:00.284Z,99835.42
2019-04-29T12:38:22.725Z,99848.95
2019-04-29T12:44:39.653Z,99837.88
2019-04-29T12:50:41.589Z,99841.45
2019-04-29T12:56:47.638Z,99843.70
2019-04-29T13:03:01.786Z,99831.59
2019-04-29T13:09:17.965Z,99825.41
2019-04-29T13:15:22.378Z,99824.41
2019-04-29T13:21:27.134Z,99816.16
2019-04-29T13:27:31.769Z,99803.59
2019-04-29T13:33:36.350Z,99792.41
2019-04-29T13:39:40.972Z,99788.50
2019-04-29T13:45:52.939Z,99787.81
2019-04-29T13:51:59.128Z,99787.94
2019-04-29T13:58:04.022Z,99783.09
2019-04-29T14:04:24.380Z,99782.72
2019-04-29T14:10:22.900Z,99782.89
2019-04-29T14:16:27.521Z,99790.51
2019-04-29T14:22:32.329Z,99790.10
2019-04-29T14:28:37.046Z,99775.09
2019-04-29T14:34:43.336Z,99774.42
2019-04-29T14:40:47.892Z,99769.47
2019-04-29T14:47:00.000Z,99759.81
2019-04-29T14:53:04.621Z,99755.08
2019-04-29T14:59:09.173Z,99760.08
2019-04-29T15:05:14.078Z,99770.80
2019-04-29T15:11:31.341Z,99771.43
2019-04-29T15:17:27.062Z,99755.17
2019-04-29T15:23:32.966Z,99756.23
2019-04-29T15:29:37.670Z,99763.25
2019-04-29T15:35:42.363Z,99772.94
2019-04-29T15:41:47.087Z,99778.77
2019-04-29T15:47:51.731Z,99770.33
2019-04-29T15:53:56.274Z,99771.67
2019-04-29T16:00:02.051Z,99760.57
2019-04-29T16:06:20.789Z,99761.32
2019-04-29T16:12:25.938Z,99755.64
2019-04-29T16:18:30.487Z,99768.05
2019-04-29T16:24:38.227Z,99764.63
2019-04-29T16:30:41.490Z,99769.20
2019-04-29T16:36:49.822Z,99758.13
2019-04-29T16:43:03.179Z,99752.53
2019-04-29T16:49:07.962Z,99762.44
2019-04-29T16:55:12.682Z,99751.89
2019-04-29T17:01:17.308Z,99754.79
2019-04-29T17:07:21.950Z,99753.23
2019-04-29T17:13:26.585Z,99751.22
2019-04-29T17:19:31.302Z,99753.02
2019-04-29T17:25:35.886Z,99750.09
2019-04-29T17:31:40.954Z,99759.21
2019-04-29T17:37:46.277Z,99749.84
2019-04-29T17:43:53.330Z,99760.67
2019-04-29T17:50:01.982Z,99753.41
2019-04-29T17:56:25.341Z,99756.23
2019-04-29T18:02:48.157Z,99758.88
2019-04-29T18:08:54.993Z,99764.37
2019-04-29T18:14:59.576Z,99769.55
2019-04-29T18:21:12.912Z,99775.37
2019-04-29T18:27:19.125Z,99783.06
2019-04-29T18:33:29.874Z,99784.82
2019-04-29T18:39:31.616Z,99798.43
2019-04-29T18:45:37.861Z,99804.78
2019-04-29T18:51:42.417Z,99816.23
2019-04-29T18:57:47.049Z,99820.11
2019-04-29T19:03:56.189Z,99824.95
2019-04-29T19:10:00.810Z,99830.83
2019-04-29T19:16:10.366Z,99827.32
2019-04-29T19:22:11.684Z,99828.34
2019-04-29T19:28:25.212Z,99838.00
2019-04-29T19:34:22.643Z,99839.31
2019-04-29T19:40:30.653Z,99834.75
2019-04-29T19:46:38.269Z,99839.18
2019-04-29T19:52:39.770Z,99840.48
2019-04-29T19:58:44.686Z,99831.77
2019-04-29T20:04:59.570Z,99836.30
2019-04-29T20:11:13.753Z,99839.08
2019-04-29T20:17:30.541Z,99834.91
2019-04-29T20:23:38.462Z,99840.86
2019-04-29T20:29:40.285Z,99836.11
2019-04-29T20:35:49.077Z,99840.95
2019-04-29T20:41:51.386Z,99834.69
2019-04-29T20:47:56.424Z,99834.64
2019-04-29T20:54:09.259Z,99841.81
2019-04-29T21:00:19.953Z,99842.84
2019-04-29T21:06:22.236Z,99844.78
2019-04-29T21:12:41.419Z,99844.70
2019-04-29T21:18:52.963Z,99850.69
2019-04-29T21:24:53.952Z,99851.31
2019-04-29T21:30:58.852Z,99854.00
2019-04-29T21:37:10.058Z,99848.47
2019-04-29T21:43:21.654Z,99849.34
2019-04-29T21:49:26.273Z,99853.83
2019-04-29T21:55:30.827Z,99851.05
2019-04-29T22:01:37.446Z,99850.30
2019-04-29T22:07:45.971Z,99847.92
2019-04-29T22:13:48.009Z,99843.65
2019-04-29T22:19:52.557Z,99846.74
2019-04-29T22:25:57.182Z,99850.27
2019-04-29T22:32:01.796Z,99848.66
2019-04-29T22:38:07.874Z,99848.70
2019-04-29T22:44:21.285Z,99851.39
2019-04-29T22:50:20.949Z,99847.58
2019-04-29T22:56:27.631Z,99850.17
2019-04-29T23:02:31.839Z,99850.17
2019-04-29T23:08:38.099Z,99858.25
2019-04-29T23:14:44.407Z,99850.91
2019-04-29T23:21:08.652Z,99844.19
2019-04-29T23:27:16.337Z,99843.27
2019-04-29T23:33:22.995Z,99847.88
2019-04-29T23:39:26.031Z,99838.89
2019-04-29T23:45:30.570Z,99829.69
2019-04-29T23:51:37.753Z,99824.38
2019-04-29T23:58:02.925Z,99822.91
